createdAt,value
2018-03-21T00:00:00.054Z,35.20
2018-03-21T00:02:27.212Z,35.30
2018-03-21T00:04:54.352Z,35.30
2018-03-21T00:07:22.117Z,35.30
2018-03-21T00:09:49.273Z,35.30
2018-03-21T00:12:16.413Z,35.70
2018-03-21T00:14:43.574Z,35.30
2018-03-21T00:17:10.713Z,35.20
2018-03-21T00:19:38.472Z,35.40
2018-03-21T00:22:05.633Z,35.20
2018-03-21T00:24:32.773Z,35.30
2018-03-21T00:26:59.932Z,35.20
2018-03-21T00:29:27.076Z,35.20
2018-03-21T00:31:54.213Z,35.20
2018-03-21T00:34:21.376Z,35.20
2018-03-21T00:36:48.513Z,35.20
2018-03-21T00:39:15.677Z,35.20
2018-03-21T00:41:43.733Z,35.30
2018-03-21T00:44:10.893Z,35.20
2018-03-21T00:46:38.032Z,35.30
2018-03-21T00:49:05.193Z,35.30
2018-03-21T00:51:32.337Z,35.30
2018-03-21T00:53:59.492Z,35.30
2018-03-21T00:56:27.253Z,35.20
2018-03-21T00:58:54.393Z,35.20
2018-03-21T01:01:21.552Z,35.20
2018-03-21T01:03:48.693Z,35.20
2018-03-21T01:06:15.853Z,35.10
2018-03-21T01:08:43.912Z,35.20
2018-03-21T01:11:11.072Z,35.10
2018-03-21T01:13:38.213Z,35.10
2018-03-21T01:16:05.375Z,35.10
2018-03-21T01:18:32.512Z,35.20
2018-03-21T01:20:59.673Z,35.20
2018-03-21T01:23:26.812Z,35.30
2018-03-21T01:25:53.952Z,35.30
2018-03-21T01:28:21.112Z,35.30
2018-03-21T01:30:50.412Z,35.40
2018-03-21T01:33:17.572Z,35.40
2018-03-21T01:35:44.713Z,35.40
2018-03-21T01:38:11.872Z,35.40
2018-03-21T01:40:39.012Z,35.50
2018-03-21T01:43:06.172Z,35.50
2018-03-21T01:45:33.932Z,35.50
2018-03-21T01:48:01.074Z,35.50
2018-03-21T01:50:28.234Z,35.50
2018-03-21T01:53:10.092Z,35.60
2018-03-21T01:55:37.272Z,35.60
2018-03-21T01:58:05.335Z,35.50
2018-03-21T02:00:32.492Z,35.60
2018-03-21T02:02:59.632Z,35.50
2018-03-21T02:05:27.713Z,35.60
2018-03-21T02:07:55.837Z,35.60
2018-03-21T02:10:22.932Z,35.50
2018-03-21T02:12:50.072Z,35.50
2018-03-21T02:15:17.232Z,35.50
2018-03-21T02:17:44.993Z,35.40
2018-03-21T02:20:12.153Z,35.40
2018-03-21T02:22:39.914Z,35.30
2018-03-21T02:25:07.978Z,35.40
2018-03-21T02:27:35.132Z,35.30
2018-03-21T02:30:02.273Z,35.30
2018-03-21T02:32:29.434Z,35.30
2018-03-21T02:34:57.192Z,35.40
2018-03-21T02:37:24.332Z,35.40
2018-03-21T02:39:51.493Z,35.40
2018-03-21T02:42:18.631Z,35.40
2018-03-21T02:44:45.793Z,35.40
2018-03-21T02:47:21.232Z,35.40
2018-03-21T02:49:48.372Z,35.90
2018-03-21T02:52:15.533Z,35.40
2018-03-21T02:54:42.672Z,35.40
2018-03-21T02:57:09.832Z,35.40
2018-03-21T02:59:36.993Z,35.40
2018-03-21T03:02:05.053Z,35.50
2018-03-21T03:04:32.219Z,35.40
2018-03-21T03:06:59.973Z,35.50
2018-03-21T03:09:27.114Z,35.50
2018-03-21T03:11:55.192Z,35.50
2018-03-21T03:14:22.352Z,35.40
2018-03-21T03:16:50.412Z,35.50
2018-03-21T03:19:18.112Z,35.40
2018-03-21T03:21:45.192Z,35.40
2018-03-21T03:24:12.152Z,35.40
2018-03-21T03:26:39.312Z,35.50
2018-03-21T03:29:06.452Z,35.50
2018-03-21T03:31:33.613Z,35.50
2018-03-21T03:34:00.752Z,35.40
2018-03-21T03:36:27.912Z,35.40
2018-03-21T03:38:55.672Z,35.50
2018-03-21T03:41:24.352Z,35.50
2018-03-21T03:43:51.519Z,36.00
2018-03-21T03:46:18.651Z,35.50
2018-03-21T03:48:45.795Z,35.50
2018-03-21T03:51:12.952Z,35.50
2018-03-21T03:53:40.092Z,35.50
2018-03-21T03:56:07.252Z,35.50
2018-03-21T03:58:34.394Z,35.50
2018-03-21T04:01:01.553Z,35.50
2018-03-21T04:03:28.693Z,35.50
2018-03-21T04:05:55.839Z,36.00
2018-03-21T04:08:22.993Z,35.50
2018-03-21T04:10:50.454Z,35.50
2018-03-21T04:13:17.601Z,35.50
2018-03-21T04:15:44.761Z,35.50
2018-03-21T04:18:11.901Z,35.50
2018-03-21T04:20:47.043Z,35.50
2018-03-21T04:23:14.293Z,35.50
2018-03-21T04:25:41.340Z,35.50
2018-03-21T04:28:08.481Z,35.50
2018-03-21T04:30:35.663Z,35.50
2018-03-21T04:33:02.781Z,35.50
2018-03-21T04:35:29.943Z,35.50
2018-03-21T04:37:57.083Z,35.50
2018-03-21T04:40:24.241Z,35.50
2018-03-21T04:42:52.001Z,35.60
2018-03-21T04:45:19.141Z,35.50
2018-03-21T04:47:46.301Z,35.50
2018-03-21T04:50:14.362Z,35.50
2018-03-21T04:52:41.521Z,35.50
2018-03-21T04:55:08.661Z,35.60
2018-03-21T04:57:35.821Z,35.60
2018-03-21T05:00:02.961Z,35.60
2018-03-21T05:02:30.120Z,35.60
2018-03-21T05:04:57.261Z,35.60
2018-03-21T05:07:24.421Z,35.60
2018-03-21T05:09:51.561Z,35.60
2018-03-21T05:12:18.720Z,35.60
2018-03-21T05:14:46.782Z,35.70
2018-03-21T05:17:13.933Z,35.60
2018-03-21T05:19:41.081Z,35.70
2018-03-21T05:22:08.221Z,35.70
2018-03-21T05:24:35.381Z,35.70
2018-03-21T05:27:02.521Z,35.80
2018-03-21T05:29:29.670Z,35.70
2018-03-21T05:31:56.830Z,35.70
2018-03-21T05:34:23.969Z,36.20
2018-03-21T05:36:51.130Z,35.70
2018-03-21T05:39:18.270Z,35.70
2018-03-21T05:41:45.430Z,35.70
2018-03-21T05:44:12.583Z,35.70
2018-03-21T05:46:39.730Z,35.70
2018-03-21T05:49:07.491Z,35.90
2018-03-21T05:51:35.575Z,35.90
2018-03-21T05:54:02.714Z,35.80
2018-03-21T05:56:29.870Z,35.90
2018-03-21T05:58:57.010Z,36.00
2018-03-21T06:01:24.170Z,36.00
2018-03-21T06:03:51.349Z,36.10
2018-03-21T06:06:18.510Z,35.80
2018-03-21T06:08:45.694Z,36.10
2018-03-21T06:11:13.110Z,36.20
2018-03-21T06:13:40.256Z,36.20
2018-03-21T06:16:08.329Z,36.50
2018-03-21T06:18:36.089Z,36.20
2018-03-21T06:21:03.231Z,36.20
2018-03-21T06:23:30.390Z,36.70
2018-03-21T06:25:58.470Z,36.20
2018-03-21T06:28:26.531Z,36.20
2018-03-21T06:30:53.693Z,36.00
2018-03-21T06:33:20.830Z,36.10
2018-03-21T06:35:47.970Z,36.20
2018-03-21T06:38:15.130Z,36.20
2018-03-21T06:40:42.270Z,36.20
2018-03-21T06:43:09.430Z,36.20
2018-03-21T06:45:36.572Z,36.30
2018-03-21T06:48:03.730Z,36.20
2018-03-21T06:50:31.070Z,36.20
2018-03-21T06:52:58.210Z,35.90
2018-03-21T06:55:25.370Z,36.20
2018-03-21T06:58:00.190Z,36.20
2018-03-21T07:00:27.343Z,36.30
2018-03-21T07:02:54.489Z,36.30
2018-03-21T07:05:21.653Z,36.40
2018-03-21T07:07:48.810Z,36.40
2018-03-21T07:10:16.870Z,36.50
2018-03-21T07:12:44.630Z,36.90
2018-03-21T07:15:29.910Z,36.40
2018-03-21T07:17:57.070Z,36.40
2018-03-21T07:20:24.213Z,36.40
2018-03-21T07:22:51.969Z,36.50
2018-03-21T07:25:19.135Z,36.40
2018-03-21T07:27:46.270Z,36.40
2018-03-21T07:30:14.350Z,36.50
2018-03-21T07:32:42.410Z,36.30
2018-03-21T07:35:09.570Z,36.20
2018-03-21T07:37:36.704Z,36.20
2018-03-21T07:40:04.792Z,36.30
2018-03-21T07:42:31.930Z,36.20
2018-03-21T07:44:59.070Z,36.30
2018-03-21T07:47:26.230Z,36.30
2018-03-21T07:49:53.990Z,36.70
2018-03-21T07:52:21.150Z,36.40
2018-03-21T07:54:48.290Z,36.60
2018-03-21T07:57:15.430Z,36.60
2018-03-21T07:59:42.589Z,37.20
2018-03-21T08:02:09.730Z,36.60
2018-03-21T08:04:36.890Z,36.70
2018-03-21T08:07:04.950Z,36.70
2018-03-21T08:09:32.110Z,36.70
2018-03-21T08:11:59.869Z,36.60
2018-03-21T08:14:27.048Z,36.60
2018-03-21T08:16:54.174Z,36.60
2018-03-21T08:19:21.931Z,36.60
2018-03-21T08:21:49.094Z,36.60
2018-03-21T08:24:16.230Z,36.60
2018-03-21T08:26:43.370Z,36.60
2018-03-21T08:29:10.529Z,36.50
2018-03-21T08:31:37.690Z,36.50
2018-03-21T08:34:04.830Z,36.40
2018-03-21T08:36:31.990Z,36.40
2018-03-21T08:38:59.130Z,36.50
2018-03-21T08:41:26.290Z,36.50
2018-03-21T08:43:54.050Z,36.60
2018-03-21T08:46:21.810Z,36.60
2018-03-21T08:48:49.890Z,36.50
2018-03-21T08:51:17.030Z,36.40
2018-03-21T08:53:44.171Z,36.40
2018-03-21T08:56:11.331Z,36.40
2018-03-21T08:58:38.470Z,36.50
2018-03-21T09:01:05.631Z,36.50
2018-03-21T09:03:32.771Z,36.40
2018-03-21T09:05:59.930Z,36.40
2018-03-21T09:08:27.990Z,36.30
2018-03-21T09:10:56.071Z,36.80
2018-03-21T09:13:23.830Z,36.10
2018-03-21T09:15:50.970Z,36.00
2018-03-21T09:18:18.178Z,36.00
2018-03-21T09:20:45.290Z,36.00
2018-03-21T09:23:13.350Z,36.10
2018-03-21T09:25:41.410Z,36.60
2018-03-21T09:28:08.572Z,36.00
2018-03-21T09:30:35.711Z,36.00
2018-03-21T09:33:02.871Z,36.10
2018-03-21T09:35:30.016Z,36.20
2018-03-21T09:37:57.170Z,36.30
2018-03-21T09:40:24.345Z,36.40
2018-03-21T09:42:52.390Z,36.50
2018-03-21T09:45:20.470Z,37.00
2018-03-21T09:47:47.610Z,36.50
2018-03-21T09:50:14.770Z,36.60
2018-03-21T09:52:41.914Z,36.60
2018-03-21T09:55:09.670Z,36.60
2018-03-21T09:57:36.808Z,36.60
2018-03-21T10:00:03.974Z,36.60
2018-03-21T10:02:31.730Z,36.60
2018-03-21T10:04:58.890Z,36.60
2018-03-21T10:07:26.034Z,36.50
2018-03-21T10:09:53.192Z,36.40
2018-03-21T10:12:20.333Z,36.30
2018-03-21T10:14:47.470Z,36.10
2018-03-21T10:17:14.634Z,35.80
2018-03-21T10:19:41.770Z,35.70
2018-03-21T10:22:08.931Z,35.60
2018-03-21T10:24:36.991Z,35.50
2018-03-21T10:27:04.150Z,35.40
2018-03-21T10:29:33.133Z,35.80
2018-03-21T10:32:00.290Z,35.30
2018-03-21T10:34:27.430Z,35.30
2018-03-21T10:36:54.594Z,35.40
2018-03-21T10:39:21.730Z,35.40
2018-03-21T10:41:48.890Z,35.50
2018-03-21T10:44:16.050Z,35.60
2018-03-21T10:46:43.810Z,35.70
2018-03-21T10:49:10.950Z,35.60
2018-03-21T10:51:38.110Z,35.80
2018-03-21T10:54:05.916Z,35.80
2018-03-21T10:56:33.010Z,35.80
2018-03-21T10:59:00.150Z,35.70
2018-03-21T11:01:33.450Z,35.60
2018-03-21T11:04:00.610Z,35.60
2018-03-21T11:06:27.782Z,35.60
2018-03-21T11:08:54.910Z,35.60
2018-03-21T11:11:22.053Z,35.50
2018-03-21T11:13:49.210Z,35.40
2018-03-21T11:16:16.350Z,35.40
2018-03-21T11:18:43.565Z,35.30
2018-03-21T11:21:10.650Z,35.20
2018-03-21T11:23:37.790Z,35.20
2018-03-21T11:26:04.950Z,35.10
2018-03-21T11:28:32.090Z,35.00
2018-03-21T11:30:59.250Z,35.00
2018-03-21T11:33:26.390Z,34.80
2018-03-21T11:35:53.549Z,34.80
2018-03-21T11:38:20.690Z,34.80
2018-03-21T11:40:47.848Z,34.90
2018-03-21T11:43:14.990Z,35.00
2018-03-21T11:45:42.151Z,35.10
2018-03-21T11:48:09.910Z,35.30
2018-03-21T11:50:37.070Z,35.30
2018-03-21T11:53:04.209Z,35.40
2018-03-21T11:55:31.877Z,35.50
2018-03-21T11:57:59.130Z,35.40
2018-03-21T12:00:26.270Z,35.30
2018-03-21T12:02:53.433Z,35.40
2018-03-21T12:05:20.570Z,35.50
2018-03-21T12:07:47.710Z,35.70
2018-03-21T12:10:14.870Z,35.70
2018-03-21T12:12:42.010Z,35.70
2018-03-21T12:15:09.169Z,35.80
2018-03-21T12:17:37.230Z,35.80
2018-03-21T12:20:04.390Z,35.80
2018-03-21T12:22:31.530Z,36.30
2018-03-21T12:24:58.699Z,35.80
2018-03-21T12:27:26.450Z,35.70
2018-03-21T12:29:53.590Z,35.60
2018-03-21T12:32:20.750Z,35.60
2018-03-21T12:34:48.810Z,35.80
2018-03-21T12:37:15.970Z,35.70
2018-03-21T12:39:43.130Z,35.80
2018-03-21T12:42:10.270Z,36.10
2018-03-21T12:44:38.385Z,35.90
2018-03-21T12:47:05.492Z,35.90
2018-03-21T12:49:32.636Z,36.00
2018-03-21T12:51:59.799Z,36.10
2018-03-21T12:54:26.930Z,36.00
2018-03-21T12:56:54.090Z,35.90
2018-03-21T12:59:21.849Z,35.60
2018-03-21T13:01:49.011Z,35.50
2018-03-21T13:04:17.070Z,35.40
2018-03-21T13:06:44.210Z,35.40
2018-03-21T13:09:11.370Z,34.60
2018-03-21T13:11:38.509Z,34.30
2018-03-21T13:14:05.672Z,34.20
2018-03-21T13:16:32.810Z,34.20
2018-03-21T13:18:59.970Z,33.90
2018-03-21T13:21:27.131Z,34.00
2018-03-21T13:23:54.270Z,34.00
2018-03-21T13:26:22.330Z,33.90
2018-03-21T13:28:49.510Z,33.80
2018-03-21T13:31:16.630Z,33.80
2018-03-21T13:33:43.770Z,34.00
2018-03-21T13:36:10.930Z,33.90
2018-03-21T13:38:38.090Z,33.90
2018-03-21T13:41:05.851Z,34.10
2018-03-21T13:43:32.990Z,34.00
2018-03-21T13:46:00.154Z,33.90
2018-03-21T13:48:27.911Z,34.00
2018-03-21T13:50:55.672Z,34.10
2018-03-21T13:53:23.130Z,34.00
2018-03-21T13:55:50.271Z,34.10
2018-03-21T13:58:17.432Z,34.00
2018-03-21T14:00:52.024Z,33.90
2018-03-21T14:03:19.364Z,33.90
2018-03-21T14:05:46.504Z,33.80
2018-03-21T14:08:13.668Z,33.90
2018-03-21T14:10:41.729Z,33.90
2018-03-21T14:13:08.885Z,34.00
2018-03-21T14:15:36.025Z,34.10
2018-03-21T14:18:03.184Z,34.10
2018-03-21T14:20:30.324Z,34.10
2018-03-21T14:22:57.485Z,34.20
2018-03-21T14:25:24.625Z,34.10
2018-03-21T14:27:51.785Z,33.90
2018-03-21T14:30:19.842Z,33.80
2018-03-21T14:32:46.992Z,33.80
2018-03-21T14:35:14.140Z,33.70
2018-03-21T14:37:44.100Z,33.60
2018-03-21T14:40:11.520Z,33.50
2018-03-21T14:42:38.660Z,33.60
2018-03-21T14:45:05.820Z,33.60
2018-03-21T14:47:32.962Z,33.40
2018-03-21T14:50:00.860Z,33.30
2018-03-21T14:52:28.024Z,33.10
2018-03-21T14:54:55.780Z,33.30
2018-03-21T14:57:23.540Z,33.80
2018-03-21T14:59:50.701Z,33.20
2018-03-21T15:02:18.761Z,33.20
2018-03-21T15:04:45.819Z,33.10
2018-03-21T15:07:13.178Z,33.20
2018-03-21T15:09:39.941Z,33.20
2018-03-21T15:12:07.641Z,33.20
2018-03-21T15:14:34.719Z,33.10
2018-03-21T15:17:01.685Z,32.90
2018-03-21T15:19:29.447Z,33.00
2018-03-21T15:21:57.214Z,33.00
2018-03-21T15:24:24.920Z,33.20
2018-03-21T15:26:51.855Z,33.10
2018-03-21T15:29:18.886Z,32.90
2018-03-21T15:31:45.806Z,33.00
2018-03-21T15:34:12.808Z,33.10
2018-03-21T15:36:39.873Z,33.00
2018-03-21T15:39:06.929Z,33.10
2018-03-21T15:41:34.683Z,33.00
2018-03-21T15:44:01.495Z,33.00
2018-03-21T15:46:28.316Z,32.90
2018-03-21T15:48:55.272Z,32.80
2018-03-21T15:51:22.387Z,32.90
2018-03-21T15:53:49.465Z,32.90
2018-03-21T15:56:16.507Z,32.80
2018-03-21T15:58:43.385Z,32.70
2018-03-21T16:01:10.725Z,32.70
2018-03-21T16:03:38.185Z,32.80
2018-03-21T16:06:05.646Z,32.80
2018-03-21T16:08:32.792Z,32.90
2018-03-21T16:10:59.849Z,32.90
2018-03-21T16:13:27.112Z,32.90
2018-03-21T16:15:54.245Z,32.90
2018-03-21T16:18:21.399Z,33.00
2018-03-21T16:20:48.261Z,33.00
2018-03-21T16:23:16.365Z,33.10
2018-03-21T16:25:43.444Z,33.00
2018-03-21T16:28:11.517Z,33.00
2018-03-21T16:30:38.520Z,33.10
2018-03-21T16:33:05.819Z,33.10
2018-03-21T16:35:33.296Z,33.10
2018-03-21T16:38:00.445Z,33.20
2018-03-21T16:40:28.504Z,33.20
2018-03-21T16:42:55.968Z,33.10
2018-03-21T16:45:23.111Z,33.10
2018-03-21T16:47:51.805Z,33.20
2018-03-21T16:50:19.864Z,33.30
2018-03-21T16:52:46.905Z,33.20
2018-03-21T16:55:13.925Z,33.20
2018-03-21T16:57:40.985Z,33.20
2018-03-21T17:00:08.105Z,33.30
2018-03-21T17:02:35.206Z,33.20
2018-03-21T17:05:02.326Z,33.30
2018-03-21T17:07:29.384Z,33.30
2018-03-21T17:09:56.392Z,33.30
2018-03-21T17:12:23.592Z,33.20
2018-03-21T17:14:51.512Z,33.40
2018-03-21T17:17:19.754Z,33.30
2018-03-21T17:19:47.834Z,33.40
2018-03-21T17:22:15.625Z,33.50
2018-03-21T17:24:42.645Z,33.40
2018-03-21T17:27:10.325Z,33.70
2018-03-21T17:29:38.153Z,33.60
2018-03-21T17:32:05.145Z,33.40
2018-03-21T17:34:32.205Z,33.70
2018-03-21T17:36:59.207Z,33.70
2018-03-21T17:39:26.166Z,33.70
2018-03-21T17:41:54.025Z,33.80
2018-03-21T17:44:21.785Z,33.90
2018-03-21T17:46:48.724Z,33.90
2018-03-21T17:49:16.504Z,34.00
2018-03-21T17:51:44.205Z,34.10
2018-03-21T17:54:11.125Z,34.10
2018-03-21T17:56:38.105Z,34.10
2018-03-21T17:59:05.065Z,34.20
2018-03-21T18:01:32.725Z,34.30
2018-03-21T18:04:00.192Z,34.30
2018-03-21T18:06:28.265Z,34.50
2018-03-21T18:08:55.405Z,34.40
2018-03-21T18:11:22.872Z,34.50
2018-03-21T18:13:50.005Z,34.60
2018-03-21T18:16:17.467Z,34.70
2018-03-21T18:18:45.895Z,34.70
2018-03-21T18:21:12.986Z,34.80
2018-03-21T18:23:41.385Z,34.80
2018-03-21T18:26:09.765Z,35.00
2018-03-21T18:28:37.833Z,35.10
2018-03-21T18:31:04.987Z,35.00
2018-03-21T18:33:32.124Z,35.10
2018-03-21T18:35:59.287Z,35.20
2018-03-21T18:38:27.355Z,35.30
2018-03-21T18:40:54.885Z,35.20
2018-03-21T18:43:22.286Z,35.30
2018-03-21T18:45:50.046Z,35.40
2018-03-21T18:48:17.465Z,35.30
2018-03-21T18:50:44.426Z,35.40
2018-03-21T18:53:12.106Z,35.90
2018-03-21T18:55:39.965Z,35.60
2018-03-21T18:58:06.988Z,35.30
2018-03-21T19:00:34.026Z,35.40
2018-03-21T19:03:01.085Z,35.60
2018-03-21T19:05:28.105Z,35.80
2018-03-21T19:07:55.086Z,35.70
2018-03-21T19:10:22.205Z,35.70
2018-03-21T19:12:50.221Z,35.70
2018-03-21T19:15:17.352Z,35.80
2018-03-21T19:17:44.805Z,35.90
2018-03-21T19:20:11.965Z,35.90
2018-03-21T19:22:40.026Z,36.00
2018-03-21T19:25:08.125Z,36.00
2018-03-21T19:27:36.165Z,36.00
2018-03-21T19:30:03.327Z,36.00
2018-03-21T19:32:30.772Z,36.00
2018-03-21T19:34:58.557Z,36.10
2018-03-21T19:37:26.607Z,36.20
2018-03-21T19:39:53.765Z,36.10
2018-03-21T19:42:20.905Z,36.10
2018-03-21T19:44:48.365Z,36.10
2018-03-21T19:47:16.745Z,36.50
2018-03-21T19:49:44.205Z,36.10
2018-03-21T19:52:12.572Z,36.20
2018-03-21T19:54:39.926Z,36.10
2018-03-21T19:57:07.512Z,36.10
2018-03-21T19:59:35.565Z,36.20
2018-03-21T20:02:02.725Z,36.10
2018-03-21T20:04:29.864Z,36.20
2018-03-21T20:06:57.032Z,36.20
2018-03-21T20:09:24.472Z,36.20
2018-03-21T20:11:51.625Z,36.20
2018-03-21T20:14:19.686Z,36.20
2018-03-21T20:16:47.145Z,36.20
2018-03-21T20:19:14.607Z,36.20
2018-03-21T20:21:42.985Z,36.20
2018-03-21T20:24:10.429Z,36.20
2018-03-21T20:26:37.597Z,36.20
2018-03-21T20:29:05.045Z,36.20
2018-03-21T20:31:33.112Z,36.40
2018-03-21T20:34:00.265Z,36.30
2018-03-21T20:36:27.766Z,36.40
2018-03-21T20:38:55.192Z,36.40
2018-03-21T20:41:22.325Z,36.40
2018-03-21T20:43:49.785Z,36.40
2018-03-21T20:46:17.845Z,36.50
2018-03-21T20:48:45.005Z,36.40
2018-03-21T20:51:13.065Z,36.40
2018-03-21T20:53:40.232Z,36.40
2018-03-21T20:56:07.365Z,36.40
2018-03-21T20:58:35.445Z,36.50
2018-03-21T21:01:02.991Z,36.50
2018-03-21T21:03:30.346Z,36.50
2018-03-21T21:05:57.512Z,36.60
2018-03-21T21:08:24.959Z,36.60
2018-03-21T21:10:52.105Z,36.60
2018-03-21T21:13:19.272Z,36.40
2018-03-21T21:15:47.354Z,36.60
2018-03-21T21:18:15.405Z,36.60
2018-03-21T21:20:42.872Z,36.60
2018-03-21T21:23:11.246Z,36.60
2018-03-21T21:25:38.959Z,36.60
2018-03-21T21:28:06.132Z,36.60
2018-03-21T21:30:33.525Z,36.60
2018-03-21T21:33:00.765Z,36.60
2018-03-21T21:35:28.525Z,37.10
2018-03-21T21:37:56.585Z,36.60
2018-03-21T21:40:24.566Z,36.50
2018-03-21T21:42:51.805Z,36.50
2018-03-21T21:45:19.192Z,36.60
2018-03-21T21:47:47.964Z,36.60
2018-03-21T21:50:16.025Z,36.60
2018-03-21T21:52:43.486Z,36.60
2018-03-21T21:55:10.632Z,36.60
2018-03-21T21:57:37.785Z,36.60
2018-03-21T22:00:06.165Z,36.70
2018-03-21T22:02:34.233Z,36.70
2018-03-21T22:05:02.317Z,36.70
2018-03-21T22:07:29.446Z,36.70
2018-03-21T22:09:56.606Z,36.70
2018-03-21T22:12:24.076Z,36.60
2018-03-21T22:14:52.125Z,36.80
2018-03-21T22:17:19.592Z,36.80
2018-03-21T22:19:47.646Z,36.90
2018-03-21T22:22:14.805Z,36.80
2018-03-21T22:24:41.945Z,36.80
2018-03-21T22:27:09.114Z,37.40
2018-03-21T22:29:36.245Z,36.90
2018-03-21T22:32:03.405Z,36.90
2018-03-21T22:34:31.464Z,37.30
2018-03-21T22:36:58.952Z,36.80
2018-03-21T22:39:26.392Z,36.80
2018-03-21T22:41:54.472Z,36.80
2018-03-21T22:44:23.145Z,36.90
2018-03-21T22:46:50.312Z,36.90
2018-03-21T22:49:17.445Z,36.80
2018-03-21T22:51:45.525Z,37.50
2018-03-21T22:54:12.965Z,36.90
2018-03-21T22:56:40.125Z,37.00
2018-03-21T22:59:08.185Z,37.10
2018-03-21T23:01:35.352Z,36.90
2018-03-21T23:04:02.486Z,37.10
2018-03-21T23:06:29.645Z,37.10
2018-03-21T23:08:56.792Z,37.10
2018-03-21T23:11:24.872Z,37.20
2018-03-21T23:13:52.005Z,37.10
2018-03-21T23:16:19.148Z,37.10
2018-03-21T23:18:46.926Z,37.20
2018-03-21T23:21:14.985Z,37.30
2018-03-21T23:23:42.153Z,37.70
2018-03-21T23:26:10.205Z,37.30
2018-03-21T23:28:37.353Z,37.20
2018-03-21T23:31:04.505Z,37.20
2018-03-21T23:33:31.673Z,37.30
2018-03-21T23:35:59.305Z,37.30
2018-03-21T23:38:26.566Z,37.30
2018-03-21T23:40:53.725Z,37.40
2018-03-21T23:43:20.874Z,37.30
2018-03-21T23:45:48.026Z,37.40
2018-03-21T23:48:16.086Z,37.30
2018-03-21T23:50:50.313Z,37.20
2018-03-21T23:53:18.393Z,37.20
2018-03-21T23:55:46.446Z,37.20
2018-03-21T23:58:14.526Z,37.30
